Time;durP1;ratioP1;P1;durP2;ratioP2;P2;SDS_P1;SDS_P2;PMS_P1;PMS_P2;Temp;Humidity;BMP_temperature;BMP_pressure;BME280_temperature;BME280_humidity;BME280_pressure;Samples;Min_cycle;Max_cycle;Signal;HPM_P1;HPM_P2
2023/09/15 00:00:11;;;;;;;4.63;3.33;;;;;12.70;101560.00;;;;4921008;29;20696;-68
2023/09/15 00:02:58;;;;;;;7.07;3.40;;;;;12.60;101564.00;;;;4914616;29;20241;-69
2023/09/15 00:05:46;;;;;;;7.80;3.90;;;;;12.50;101563.00;;;;4920276;29;20590;-69
2023/09/15 00:08:34;;;;;;;4.97;3.30;;;;;12.50;101553.00;;;;4918773;29;20269;-69
2023/09/15 00:11:22;;;;;;;9.60;3.80;;;;;12.50;101556.00;;;;4926560;28;20713;-71
2023/09/15 00:14:10;;;;;;;4.93;3.73;;;;;12.50;101549.00;;;;4914794;29;20233;-69
2023/09/15 00:16:57;;;;;;;6.17;3.50;;;;;12.50;101558.00;;;;4922314;29;20366;-69
2023/09/15 00:19:44;;;;;;;7.43;3.50;;;;;12.50;101550.00;;;;4918750;29;20265;-69
2023/09/15 00:22:33;;;;;;;5.40;3.63;;;;;12.40;101544.00;;;;4918618;28;20236;-69
2023/09/15 00:25:21;;;;;;;6.50;3.87;;;;;12.40;101546.00;;;;4924626;29;20233;-69
2023/09/15 00:28:09;;;;;;;9.67;4.10;;;;;12.40;101550.00;;;;4908618;29;20678;-70
2023/09/15 00:30:56;;;;;;;3.83;3.27;;;;;12.40;101545.00;;;;4915000;29;20300;-67
2023/09/15 00:33:42;;;;;;;5.43;3.20;;;;;12.40;101551.00;;;;4915510;29;20243;-69
2023/09/15 00:36:28;;;;;;;8.87;4.10;;;;;12.40;101536.00;;;;4918550;29;20282;-70
2023/09/15 00:39:16;;;;;;;5.00;3.77;;;;;12.40;101542.00;;;;4914997;29;20237;-67
2023/09/15 00:42:02;;;;;;;5.47;3.50;;;;;12.40;101538.00;;;;4908050;29;20241;-70
2023/09/15 00:44:48;;;;;;;8.40;3.87;;;;;12.40;101539.00;;;;4913877;29;20241;-71
2023/09/15 00:47:36;;;;;;;6.60;3.90;;;;;12.30;101538.00;;;;4921205;28;20256;-70
2023/09/15 00:50:24;;;;;;;5.33;3.67;;;;;12.30;101532.00;;;;4924521;29;20365;-69
2023/09/15 00:53:14;;;;;;;7.93;3.67;;;;;12.30;101532.00;;;;4918425;29;20320;-70
2023/09/15 00:56:03;;;;;;;8.73;4.03;;;;;12.30;101537.00;;;;4913116;29;20237;-69
2023/09/15 00:58:49;;;;;;;7.20;3.77;;;;;12.30;101538.00;;;;4917500;29;20309;-71
2023/09/15 01:01:39;;;;;;;7.30;3.83;;;;;12.30;101533.00;;;;4916238;28;20237;-70
2023/09/15 01:04:29;;;;;;;5.17;4.00;;;;;12.20;101536.00;;;;4922975;28;20276;-70
2023/09/15 01:07:15;;;;;;;5.03;3.97;;;;;12.20;101530.00;;;;4915478;28;20908;-70
2023/09/15 01:10:03;;;;;;;5.90;3.83;;;;;12.30;101526.00;;;;4922349;29;20296;-67
2023/09/15 01:12:53;;;;;;;6.07;3.70;;;;;12.20;101521.00;;;;4915723;29;20233;-68
2023/09/15 01:15:47;;;;;;;11.10;3.93;;;;;12.20;101511.00;;;;4923169;29;20248;-68
2023/09/15 01:18:42;;;;;;;6.40;4.10;;;;;12.20;101516.00;;;;4917341;29;20295;-67
2023/09/15 01:22:12;;;;;;;5.37;3.83;;;;;12.20;101513.00;;;;4918132;28;20649;-68
2023/09/15 01:25:40;;;;;;;5.40;4.10;;;;;12.10;101509.00;;;;4912227;29;20229;-65
2023/09/15 01:29:00;;;;;;;7.43;3.90;;;;;12.10;101507.00;;;;4920953;29;20293;-68
2023/09/15 01:31:49;;;;;;;7.03;4.90;;;;;12.10;101512.00;;;;4924597;29;20358;-69
2023/09/15 01:34:36;;;;;;;7.60;4.77;;;;;12.00;101509.00;;;;4912479;29;20242;-71
2023/09/15 01:37:23;;;;;;;8.47;4.67;;;;;12.00;101502.00;;;;4916672;28;20241;-69
2023/09/15 01:40:11;;;;;;;6.67;4.33;;;;;12.00;101512.00;;;;4923846;28;20237;-69
2023/09/15 01:42:57;;;;;;;6.27;4.47;;;;;12.00;101506.00;;;;4909887;29;21220;-70
2023/09/15 01:45:43;;;;;;;7.30;5.00;;;;;12.00;101493.00;;;;4925299;28;20735;-69
2023/09/15 01:48:32;;;;;;;9.03;4.90;;;;;11.90;101501.00;;;;4918694;28;20788;-71
2023/09/15 01:51:18;;;;;;;7.90;4.50;;;;;11.90;101498.00;;;;4918294;29;20607;-68
2023/09/15 01:54:05;;;;;;;8.47;5.30;;;;;11.90;101503.00;;;;4919528;29;20279;-68
2023/09/15 01:56:51;;;;;;;7.53;4.67;;;;;11.90;101496.00;;;;4925044;29;20915;-69
2023/09/15 01:59:37;;;;;;;7.10;4.90;;;;;11.90;101507.00;;;;4924488;29;20360;-67
2023/09/15 02:02:24;;;;;;;7.73;5.33;;;;;11.90;101501.00;;;;4917347;29;20613;-69
2023/09/15 02:05:19;;;;;;;8.30;5.60;;;;;11.90;101502.00;;;;4923991;29;20994;-69
2023/09/15 02:08:06;;;;;;;7.47;5.43;;;;;11.90;101500.00;;;;4913639;28;20236;-68
2023/09/15 02:10:52;;;;;;;7.70;5.13;;;;;11.90;101497.00;;;;4926491;28;20308;-69
2023/09/15 02:13:38;;;;;;;7.07;5.40;;;;;11.90;101496.00;;;;4927862;29;20240;-69
2023/09/15 02:16:25;;;;;;;7.37;5.07;;;;;11.80;101501.00;;;;4918954;28;20286;-70
2023/09/15 02:19:12;;;;;;;8.60;5.10;;;;;11.80;101498.00;;;;4916041;28;20294;-67
2023/09/15 02:21:59;;;;;;;10.10;5.57;;;;;11.80;101495.00;;;;4917820;29;20281;-70
2023/09/15 02:24:46;;;;;;;6.83;5.03;;;;;11.80;101493.00;;;;4925626;28;20237;-68
2023/09/15 02:27:32;;;;;;;8.73;5.30;;;;;11.80;101499.00;;;;4912268;29;20241;-70
2023/09/15 02:30:19;;;;;;;7.73;5.17;;;;;11.80;101488.00;;;;4917586;29;20233;-68
2023/09/15 02:33:05;;;;;;;8.07;5.40;;;;;11.80;101491.00;;;;4918469;29;20802;-67
2023/09/15 02:35:51;;;;;;;9.77;5.30;;;;;11.70;101494.00;;;;4911979;29;20605;-70
2023/09/15 02:38:39;;;;;;;10.37;5.30;;;;;11.70;101495.00;;;;4913441;29;20249;-71
2023/09/15 02:41:25;;;;;;;7.63;4.80;;;;;11.70;101485.00;;;;4926274;28;20227;-69
2023/09/15 02:44:12;;;;;;;8.33;5.20;;;;;11.60;101486.00;;;;4922326;29;20236;-70
2023/09/15 02:46:58;;;;;;;7.93;5.37;;;;;11.60;101485.00;;;;4915503;29;20304;-67
2023/09/15 02:49:44;;;;;;;9.53;5.80;;;;;11.60;101477.00;;;;4910655;29;20265;-70
2023/09/15 02:52:31;;;;;;;7.33;5.30;;;;;11.60;101473.00;;;;4909152;29;20253;-72
2023/09/15 02:55:19;;;;;;;8.47;5.20;;;;;11.60;101472.00;;;;4913920;29;20236;-68
2023/09/15 02:58:05;;;;;;;6.87;5.10;;;;;11.60;101471.00;;;;4905563;29;20257;-70
2023/09/15 03:00:52;;;;;;;9.97;5.23;;;;;11.50;101469.00;;;;4922338;29;20330;-69
2023/09/15 03:03:38;;;;;;;7.97;5.13;;;;;11.50;101474.00;;;;4926780;29;20244;-68
2023/09/15 03:06:24;;;;;;;7.53;5.13;;;;;11.50;101477.00;;;;4909195;29;20249;-69
2023/09/15 03:09:12;;;;;;;7.47;5.27;;;;;11.50;101474.00;;;;4907521;29;20241;-71
2023/09/15 03:12:00;;;;;;;9.23;5.80;;;;;11.40;101468.00;;;;4923354;28;20236;-68
2023/09/15 03:14:46;;;;;;;8.80;5.70;;;;;11.40;101452.00;;;;4925870;29;20241;-70
2023/09/15 03:17:33;;;;;;;7.40;5.20;;;;;11.30;101462.00;;;;4922026;28;20308;-70
2023/09/15 03:20:20;;;;;;;7.13;5.10;;;;;11.30;101457.00;;;;4923364;29;20241;-69
2023/09/15 03:23:07;;;;;;;8.07;5.27;;;;;11.30;101457.00;;;;4905651;29;20699;-71
2023/09/15 03:25:59;;;;;;;9.17;5.47;;;;;11.30;101454.00;;;;4915356;29;20374;-69
2023/09/15 03:28:47;;;;;;;9.80;5.47;;;;;11.30;101457.00;;;;4919486;29;20360;-69
2023/09/15 03:31:33;;;;;;;9.37;5.50;;;;;11.20;101450.00;;;;4911251;29;20293;-69
2023/09/15 03:34:20;;;;;;;6.70;4.57;;;;;11.20;101445.00;;;;4920311;29;20609;-70
2023/09/15 03:37:07;;;;;;;13.80;5.40;;;;;11.20;101451.00;;;;4915503;29;20809;-70
2023/09/15 03:39:55;;;;;;;9.27;5.30;;;;;11.20;101451.00;;;;4918624;29;20236;-71
2023/09/15 03:42:41;;;;;;;7.90;5.47;;;;;11.20;101443.00;;;;4916733;29;20244;-71
2023/09/15 03:45:29;;;;;;;10.43;5.97;;;;;11.20;101445.00;;;;4920719;29;20236;-68
2023/09/15 03:48:16;;;;;;;7.97;4.80;;;;;11.10;101453.00;;;;4922186;29;20735;-69
2023/09/15 03:51:02;;;;;;;10.97;5.40;;;;;11.10;101447.00;;;;4931090;29;20245;-68
2023/09/15 03:53:49;;;;;;;6.37;5.30;;;;;11.10;101442.00;;;;4932440;29;20249;-67
2023/09/15 03:56:36;;;;;;;7.23;5.37;;;;;11.10;101440.00;;;;4934139;29;20236;-69
2023/09/15 03:59:22;;;;;;;10.47;5.43;;;;;11.10;101440.00;;;;4927355;29;21008;-68
2023/09/15 04:02:10;;;;;;;8.57;6.10;;;;;11.10;101442.00;;;;4927225;29;20237;-67
2023/09/15 04:04:57;;;;;;;10.13;5.50;;;;;11.00;101440.00;;;;4929394;29;20254;-69
2023/09/15 04:07:43;;;;;;;9.83;5.10;;;;;11.00;101443.00;;;;4930728;29;20236;-69
2023/09/15 04:10:30;;;;;;;7.60;5.43;;;;;11.00;101436.00;;;;4924895;29;20351;-69
2023/09/15 04:13:16;;;;;;;8.43;5.37;;;;;11.00;101437.00;;;;4935382;29;20293;-69
2023/09/15 04:16:04;;;;;;;8.73;5.17;;;;;11.00;101425.00;;;;4934293;29;20236;-70
2023/09/15 04:18:52;;;;;;;10.50;5.83;;;;;11.10;101431.00;;;;4924135;29;20289;-68
2023/09/15 04:21:42;;;;;;;9.93;6.13;;;;;11.00;101433.00;;;;4919750;29;20240;-69
2023/09/15 04:24:28;;;;;;;7.97;5.50;;;;;11.00;101438.00;;;;4927970;29;20254;-68
2023/09/15 04:27:15;;;;;;;8.13;5.90;;;;;11.00;101435.00;;;;4924582;29;20248;-67
2023/09/15 04:30:02;;;;;;;7.70;5.67;;;;;10.90;101448.00;;;;4917438;29;20240;-70
2023/09/15 04:32:48;;;;;;;7.90;5.70;;;;;10.90;101453.00;;;;4925495;29;20745;-67
2023/09/15 04:35:36;;;;;;;7.90;5.80;;;;;10.90;101451.00;;;;4921599;29;20311;-68
2023/09/15 04:38:22;;;;;;;8.13;4.93;;;;;10.90;101447.00;;;;4918319;29;20289;-70
2023/09/15 04:41:08;;;;;;;7.53;5.40;;;;;10.90;101444.00;;;;4914051;29;20233;-68
2023/09/15 04:43:56;;;;;;;7.77;5.63;;;;;10.80;101443.00;;;;4923143;28;20296;-68
2023/09/15 04:46:43;;;;;;;11.47;5.80;;;;;10.80;101444.00;;;;4917438;29;20259;-69
2023/09/15 04:49:29;;;;;;;7.23;5.60;;;;;10.80;101446.00;;;;4914223;28;20234;-68
2023/09/15 04:52:17;;;;;;;9.03;5.80;;;;;10.70;101433.00;;;;4917115;29;20230;-68
2023/09/15 04:55:03;;;;;;;11.90;5.93;;;;;10.80;101449.00;;;;4913450;29;20336;-70
2023/09/15 04:57:50;;;;;;;8.83;5.77;;;;;10.70;101440.00;;;;4926009;29;20308;-69
2023/09/15 05:00:36;;;;;;;7.27;5.87;;;;;10.70;101449.00;;;;4918957;29;20345;-68
2023/09/15 05:03:23;;;;;;;9.73;6.10;;;;;10.70;101445.00;;;;4915876;29;20235;-69
2023/09/15 05:06:09;;;;;;;12.23;6.13;;;;;10.70;101437.00;;;;4919368;28;20771;-69
2023/09/15 05:08:57;;;;;;;8.07;6.20;;;;;10.70;101438.00;;;;4926788;29;20231;-69
2023/09/15 05:11:43;;;;;;;11.33;6.13;;;;;10.60;101438.00;;;;4920738;29;20236;-68
2023/09/15 05:14:30;;;;;;;8.73;5.87;;;;;10.60;101433.00;;;;4927203;28;20600;-70
2023/09/15 05:17:19;;;;;;;9.83;6.43;;;;;10.60;101433.00;;;;4928079;29;20301;-67
2023/09/15 05:20:06;;;;;;;10.30;6.50;;;;;10.60;101432.00;;;;4924975;28;20243;-68
2023/09/15 05:22:53;;;;;;;7.30;6.10;;;;;10.60;101437.00;;;;4917483;29;20634;-69
2023/09/15 05:25:41;;;;;;;7.80;5.57;;;;;10.60;101430.00;;;;4917861;29;20242;-68
2023/09/15 05:28:27;;;;;;;10.10;6.30;;;;;10.70;101431.00;;;;4918499;29;20229;-69
2023/09/15 05:31:14;;;;;;;9.57;6.10;;;;;10.70;101433.00;;;;4928429;29;20240;-68
2023/09/15 05:34:00;;;;;;;8.73;6.03;;;;;10.70;101434.00;;;;4927106;29;20295;-68
2023/09/15 05:36:47;;;;;;;10.53;5.77;;;;;10.70;101439.00;;;;4918984;29;20241;-68
2023/09/15 05:39:33;;;;;;;9.20;6.07;;;;;10.80;101443.00;;;;4921713;29;20371;-69
2023/09/15 05:42:21;;;;;;;8.50;6.23;;;;;10.80;101444.00;;;;4930506;29;20228;-68
2023/09/15 05:45:09;;;;;;;9.97;6.30;;;;;10.90;101452.00;;;;4924236;29;20229;-70
2023/09/15 05:47:55;;;;;;;11.20;6.60;;;;;10.90;101448.00;;;;4920632;29;20240;-68
2023/09/15 05:50:41;;;;;;;11.37;6.90;;;;;10.90;101454.00;;;;4928586;29;20320;-67
2023/09/15 05:53:27;;;;;;;8.87;6.93;;;;;11.00;101451.00;;;;4916623;29;20295;-72
2023/09/15 05:56:14;;;;;;;9.80;6.33;;;;;11.10;101449.00;;;;4922974;28;20240;-68
2023/09/15 05:59:03;;;;;;;10.97;7.03;;;;;11.10;101446.00;;;;4920857;29;20622;-68
2023/09/15 06:01:50;;;;;;;12.90;7.10;;;;;11.30;101441.00;;;;4926782;29;20236;-70
2023/09/15 06:04:37;;;;;;;9.57;7.40;;;;;11.30;101447.00;;;;4917812;29;20236;-67
2023/09/15 06:07:23;;;;;;;10.60;7.40;;;;;11.40;101447.00;;;;4921126;29;20612;-68
2023/09/15 06:10:10;;;;;;;10.07;7.63;;;;;11.40;101448.00;;;;4922072;29;20753;-69
2023/09/15 06:12:56;;;;;;;10.77;7.10;;;;;11.50;101452.00;;;;4922200;29;20380;-70
2023/09/15 06:15:44;;;;;;;12.83;7.33;;;;;11.60;101453.00;;;;4918343;29;20245;-70
2023/09/15 06:18:31;;;;;;;10.20;7.50;;;;;11.60;101449.00;;;;4922230;29;20238;-67
2023/09/15 06:21:17;;;;;;;13.10;7.37;;;;;11.70;101453.00;;;;4914673;29;20253;-69
2023/09/15 06:24:04;;;;;;;10.27;7.83;;;;;11.80;101447.00;;;;4927047;29;20245;-69
2023/09/15 06:26:52;;;;;;;13.67;8.40;;;;;11.90;101449.00;;;;4921267;29;20285;-68
2023/09/15 06:29:39;;;;;;;12.27;8.33;;;;;12.00;101446.00;;;;4926905;29;20339;-67
2023/09/15 06:32:26;;;;;;;17.00;8.57;;;;;12.00;101450.00;;;;4918054;29;20312;-69
2023/09/15 06:35:13;;;;;;;12.27;8.00;;;;;12.10;101448.00;;;;4926697;29;20369;-69
2023/09/15 06:37:59;;;;;;;14.70;9.00;;;;;12.10;101452.00;;;;4920804;29;20336;-69
2023/09/15 06:40:46;;;;;;;14.57;8.73;;;;;12.20;101458.00;;;;4922508;29;20244;-70
2023/09/15 06:43:33;;;;;;;16.53;8.60;;;;;12.30;101443.00;;;;4921782;29;20238;-68
2023/09/15 06:46:21;;;;;;;12.23;9.00;;;;;12.40;101448.00;;;;4924804;29;20344;-72
2023/09/15 06:49:09;;;;;;;14.80;8.77;;;;;12.40;101448.00;;;;4919902;28;20238;-70
2023/09/15 06:51:56;;;;;;;15.20;8.60;;;;;12.50;101452.00;;;;4924778;29;20324;-71
2023/09/15 06:54:42;;;;;;;12.73;8.67;;;;;12.60;101454.00;;;;4925549;29;20268;-69
2023/09/15 06:57:29;;;;;;;12.23;8.10;;;;;12.70;101452.00;;;;4923044;29;20248;-72
2023/09/15 07:00:16;;;;;;;16.63;8.57;;;;;12.70;101446.00;;;;4923308;29;20245;-70
2023/09/15 07:03:02;;;;;;;11.30;8.17;;;;;12.80;101446.00;;;;4920875;28;20373;-68
2023/09/15 07:05:50;;;;;;;9.77;7.93;;;;;12.80;101448.00;;;;4917328;29;20898;-70
2023/09/15 07:08:36;;;;;;;11.17;8.23;;;;;12.90;101437.00;;;;4904458;29;20229;-70
2023/09/15 07:11:23;;;;;;;11.70;8.33;;;;;13.00;101440.00;;;;4915993;29;20307;-70
2023/09/15 07:14:12;;;;;;;9.20;7.73;;;;;13.10;101437.00;;;;4927184;29;20269;-69
2023/09/15 07:16:58;;;;;;;13.07;7.13;;;;;13.20;101444.00;;;;4919774;29;20239;-68
2023/09/15 07:19:46;;;;;;;14.40;7.43;;;;;13.30;101441.00;;;;4916241;29;20244;-71
2023/09/15 07:22:34;;;;;;;12.93;7.20;;;;;13.40;101430.00;;;;4924224;28;20925;-69
2023/09/15 07:25:20;;;;;;;14.77;8.43;;;;;13.40;101431.00;;;;4928397;28;20652;-71
2023/09/15 07:28:06;;;;;;;10.73;7.03;;;;;13.40;101430.00;;;;4913666;29;20608;-71
2023/09/15 07:30:53;;;;;;;15.17;7.10;;;;;13.50;101436.00;;;;4924028;29;20745;-71
2023/09/15 07:33:39;;;;;;;10.87;7.17;;;;;13.70;101436.00;;;;4924620;29;20236;-70
2023/09/15 07:36:25;;;;;;;10.63;7.13;;;;;13.70;101442.00;;;;4926289;28;20750;-69
2023/09/15 07:39:15;;;;;;;9.07;6.57;;;;;13.80;101434.00;;;;4916283;28;20232;-71
2023/09/15 07:42:02;;;;;;;11.67;7.00;;;;;13.80;101429.00;;;;4921439;28;20233;-73
2023/09/15 07:44:49;;;;;;;13.20;6.83;;;;;13.90;101426.00;;;;4921639;29;20770;-72
2023/09/15 07:47:35;;;;;;;10.53;6.07;;;;;14.00;101432.00;;;;4920070;29;20240;-68
2023/09/15 07:50:22;;;;;;;8.83;6.37;;;;;14.00;101422.00;;;;4925596;29;20650;-71
2023/09/15 07:53:09;;;;;;;9.57;6.20;;;;;14.10;101418.00;;;;4919647;29;20237;-71
2023/09/15 07:55:56;;;;;;;11.57;6.07;;;;;14.20;101421.00;;;;4916422;28;20293;-71
2023/09/15 07:58:43;;;;;;;11.53;5.73;;;;;14.30;101423.00;;;;4916660;28;20245;-71
2023/09/15 08:01:29;;;;;;;10.03;6.27;;;;;14.40;101414.00;;;;4917807;29;20229;-70
2023/09/15 08:04:16;;;;;;;8.63;5.97;;;;;14.60;101423.00;;;;4919792;28;20858;-66
2023/09/15 08:07:05;;;;;;;9.10;5.87;;;;;14.60;101407.00;;;;4921017;29;20233;-65
2023/09/15 08:09:52;;;;;;;7.87;5.70;;;;;14.80;101409.00;;;;4913921;28;20250;-66
2023/09/15 08:12:39;;;;;;;8.33;5.53;;;;;14.80;101399.00;;;;4921629;29;20621;-69
2023/09/15 08:15:26;;;;;;;8.23;5.73;;;;;14.90;101407.00;;;;4924036;29;20234;-71
2023/09/15 08:18:12;;;;;;;8.83;5.60;;;;;15.10;101403.00;;;;4924721;29;20627;-69
2023/09/15 08:20:58;;;;;;;8.37;5.53;;;;;15.20;101401.00;;;;4920182;29;20389;-70
2023/09/15 08:23:45;;;;;;;7.90;5.20;;;;;15.20;101394.00;;;;4919933;29;20245;-71
2023/09/15 08:26:31;;;;;;;10.63;5.33;;;;;15.40;101397.00;;;;4921161;29;20293;-70
2023/09/15 08:29:30;;;;;;;6.90;4.73;;;;;15.60;101399.00;;;;4915601;29;20310;-69
2023/09/15 08:32:16;;;;;;;8.63;4.37;;;;;15.70;101392.00;;;;4916571;29;20241;-70
2023/09/15 08:35:04;;;;;;;7.00;4.80;;;;;15.80;101388.00;;;;4924452;29;20627;-69
2023/09/15 08:37:50;;;;;;;7.70;4.60;;;;;15.90;101387.00;;;;4926179;29;20311;-70
2023/09/15 08:40:47;;;;;;;8.00;4.37;;;;;16.10;101392.00;;;;4924179;29;20737;-69
2023/09/15 08:43:34;;;;;;;8.87;4.13;;;;;16.20;101392.00;;;;4914740;29;20982;-70
2023/09/15 08:46:22;;;;;;;7.93;4.27;;;;;16.30;101395.00;;;;4925409;29;20955;-70
2023/09/15 08:49:10;;;;;;;7.63;4.27;;;;;16.50;101402.00;;;;4923438;29;20233;-68
2023/09/15 08:51:57;;;;;;;5.63;3.80;;;;;16.60;101401.00;;;;4920881;29;20384;-67
2023/09/15 08:54:43;;;;;;;5.33;3.53;;;;;16.70;101401.00;;;;4920768;29;20246;-68
2023/09/15 08:57:30;;;;;;;8.43;3.40;;;;;16.90;101397.00;;;;4920671;29;20300;-70
2023/09/15 09:00:17;;;;;;;7.50;3.37;;;;;17.00;101395.00;;;;4924160;29;20791;-68
2023/09/15 09:03:12;;;;;;;8.70;3.50;;;;;17.10;101387.00;;;;4912792;29;20362;-69
2023/09/15 09:05:59;;;;;;;6.13;3.30;;;;;17.20;101389.00;;;;4930297;29;20284;-71
2023/09/15 09:08:47;;;;;;;6.03;3.10;;;;;17.40;101388.00;;;;4927329;29;20228;-69
2023/09/15 09:11:34;;;;;;;9.60;3.57;;;;;17.50;101384.00;;;;4921082;29;20373;-70
2023/09/15 09:14:20;;;;;;;5.70;3.30;;;;;17.60;101384.00;;;;4922904;29;20233;-70
2023/09/15 09:17:08;;;;;;;8.27;3.77;;;;;17.70;101389.00;;;;4922192;29;20260;-70
2023/09/15 09:19:56;;;;;;;5.97;3.10;;;;;17.90;101391.00;;;;4915903;29;20857;-71
2023/09/15 09:22:43;;;;;;;8.07;3.00;;;;;18.00;101384.00;;;;4923462;29;20339;-71
2023/09/15 09:25:33;;;;;;;8.23;3.07;;;;;18.10;101377.00;;;;4921376;29;20750;-69
2023/09/15 09:28:21;;;;;;;5.83;3.07;;;;;18.20;101385.00;;;;4919576;29;20232;-70
2023/09/15 09:31:09;;;;;;;5.67;3.20;;;;;18.30;101375.00;;;;4921679;29;20277;-71
2023/09/15 09:33:58;;;;;;;7.27;3.10;;;;;18.40;101372.00;;;;4925799;28;20309;-70
2023/09/15 09:36:49;;;;;;;6.80;2.90;;;;;18.50;101379.00;;;;4919662;29;20226;-69
2023/09/15 09:39:35;;;;;;;4.70;2.60;;;;;18.60;101371.00;;;;4919312;29;20248;-66
2023/09/15 09:42:23;;;;;;;5.37;2.77;;;;;18.70;101366.00;;;;4926427;29;20233;-71
2023/09/15 09:45:10;;;;;;;5.60;3.07;;;;;18.90;101366.00;;;;4925873;29;20273;-71
2023/09/15 09:47:58;;;;;;;4.70;3.13;;;;;19.10;101367.00;;;;4914511;29;20317;-72
2023/09/15 09:50:48;;;;;;;6.50;2.90;;;;;19.30;101367.00;;;;4918027;29;20237;-68
2023/09/15 09:53:36;;;;;;;7.87;3.10;;;;;19.40;101367.00;;;;4918728;29;20318;-69
2023/09/15 09:56:23;;;;;;;5.77;3.00;;;;;19.40;101374.00;;;;4914163;29;20903;-71
2023/09/15 09:59:11;;;;;;;7.83;2.80;;;;;19.60;101373.00;;;;4920828;29;20229;-71
2023/09/15 10:01:57;;;;;;;6.97;2.60;;;;;19.60;101373.00;;;;4923055;29;20308;-70
2023/09/15 10:04:45;;;;;;;4.87;2.37;;;;;19.70;101372.00;;;;4915893;29;20241;-71
2023/09/15 10:07:32;;;;;;;3.33;2.23;;;;;19.90;101363.00;;;;4925045;28;20616;-71
2023/09/15 10:10:20;;;;;;;7.17;2.30;;;;;19.90;101363.00;;;;4926286;28;20235;-71
2023/09/15 10:13:06;;;;;;;4.23;2.30;;;;;20.10;101357.00;;;;4912487;29;20241;-71
2023/09/15 10:15:56;;;;;;;5.53;2.43;;;;;20.20;101348.00;;;;4921655;28;20638;-69
2023/09/15 10:18:44;;;;;;;3.43;2.10;;;;;20.40;101359.00;;;;4914920;29;21101;-70
2023/09/15 10:21:32;;;;;;;5.00;2.63;;;;;20.50;101345.00;;;;4914870;29;20985;-68
2023/09/15 10:24:19;;;;;;;7.93;2.50;;;;;20.60;101348.00;;;;4925672;29;20784;-71
2023/09/15 10:27:06;;;;;;;6.20;2.77;;;;;20.80;101341.00;;;;4917620;29;20313;-71
2023/09/15 10:29:53;;;;;;;4.43;2.53;;;;;20.80;101337.00;;;;4917974;28;20267;-70
2023/09/15 10:32:40;;;;;;;5.40;2.60;;;;;20.80;101335.00;;;;4925122;29;20245;-70
2023/09/15 10:35:27;;;;;;;8.13;2.50;;;;;20.80;101327.00;;;;4923954;29;20238;-70
2023/09/15 10:38:25;;;;;;;4.40;2.47;;;;;21.00;101337.00;;;;4918476;29;20238;-69
2023/09/15 10:41:11;;;;;;;3.97;2.60;;;;;21.10;101339.00;;;;4921556;29;20620;-70
2023/09/15 10:43:59;;;;;;;3.93;2.40;;;;;21.20;101340.00;;;;4915486;29;20245;-69
2023/09/15 10:46:45;;;;;;;5.17;2.53;;;;;21.20;101330.00;;;;4918725;29;20237;-69
2023/09/15 10:49:31;;;;;;;5.90;2.23;;;;;21.30;101330.00;;;;4918765;29;20229;-69
2023/09/15 10:52:18;;;;;;;4.97;2.40;;;;;21.60;101341.00;;;;4911143;29;20260;-70
2023/09/15 10:55:06;;;;;;;7.13;2.50;;;;;21.70;101330.00;;;;4915907;29;20286;-70
2023/09/15 10:57:52;;;;;;;6.33;2.80;;;;;21.60;101327.00;;;;4924480;28;20292;-71
2023/09/15 11:00:41;;;;;;;4.87;2.73;;;;;21.60;101328.00;;;;4923286;29;20236;-70
2023/09/15 11:03:29;;;;;;;4.53;2.80;;;;;21.70;101330.00;;;;4915026;29;20241;-71
2023/09/15 11:06:18;;;;;;;3.63;2.50;;;;;21.80;101311.00;;;;4910071;29;20248;-70
2023/09/15 11:09:06;;;;;;;4.37;2.60;;;;;21.90;101312.00;;;;4925007;29;20774;-69
2023/09/15 11:11:53;;;;;;;5.27;2.60;;;;;21.90;101304.00;;;;4927206;28;20270;-70
2023/09/15 11:14:39;;;;;;;5.20;2.50;;;;;22.00;101306.00;;;;4924304;29;20258;-69
2023/09/15 11:17:30;;;;;;;4.07;2.53;;;;;22.10;101308.00;;;;4918533;29;20377;-71
2023/09/15 11:20:16;;;;;;;3.63;2.40;;;;;22.10;101311.00;;;;4921356;28;20294;-72
2023/09/15 11:23:05;;;;;;;6.43;2.70;;;;;22.40;101306.00;;;;4918403;29;20237;-67
2023/09/15 11:25:59;;;;;;;3.67;2.50;;;;;22.50;101299.00;;;;4918552;29;20276;-70
2023/09/15 11:28:48;;;;;;;2.93;2.20;;;;;22.70;101306.00;;;;4923459;29;20232;-70
2023/09/15 11:31:37;;;;;;;5.17;2.43;;;;;22.80;101294.00;;;;4926752;29;20260;-68
2023/09/15 11:34:25;;;;;;;4.20;2.60;;;;;22.80;101298.00;;;;4927988;29;20236;-71
2023/09/15 11:37:11;;;;;;;5.80;2.33;;;;;22.90;101295.00;;;;4925286;29;20776;-71
2023/09/15 11:39:58;;;;;;;4.43;2.20;;;;;22.80;101289.00;;;;4926850;29;20721;-70
2023/09/15 11:42:52;;;;;;;4.30;2.60;;;;;23.00;101285.00;;;;4927743;29;20240;-70
2023/09/15 11:45:40;;;;;;;5.10;2.67;;;;;23.20;101284.00;;;;4921210;29;20253;-70
2023/09/15 11:48:27;;;;;;;5.70;2.43;;;;;23.10;101281.00;;;;4918362;28;20233;-71
2023/09/15 11:51:15;;;;;;;4.07;2.73;;;;;23.30;101285.00;;;;4918493;29;20241;-70
2023/09/15 11:54:03;;;;;;;5.77;2.60;;;;;23.40;101278.00;;;;4921108;29;20833;-69
2023/09/15 11:56:50;;;;;;;4.53;2.47;;;;;23.40;101272.00;;;;4924897;29;20304;-70
2023/09/15 11:59:37;;;;;;;5.40;2.50;;;;;23.40;101266.00;;;;4919540;29;20770;-71
2023/09/15 12:02:24;;;;;;;4.20;2.53;;;;;23.40;101274.00;;;;4919394;28;20308;-67
2023/09/15 12:05:10;;;;;;;4.90;2.50;;;;;23.30;101274.00;;;;4921769;28;20714;-69
2023/09/15 12:07:59;;;;;;;4.53;2.43;;;;;23.50;101274.00;;;;4917287;29;20238;-69
2023/09/15 12:10:46;;;;;;;3.60;2.37;;;;;23.60;101273.00;;;;4921099;28;20333;-68
2023/09/15 12:13:48;;;;;;;3.73;2.50;;;;;23.50;101275.00;;;;4924181;28;20257;-72
2023/09/15 12:16:36;;;;;;;4.10;2.67;;;;;23.50;101266.00;;;;4917103;28;20305;-71
2023/09/15 12:19:23;;;;;;;3.00;2.50;;;;;23.60;101262.00;;;;4924607;28;20240;-71
2023/09/15 12:22:12;;;;;;;6.50;2.83;;;;;23.50;101259.00;;;;4916304;29;20229;-70
2023/09/15 12:25:00;;;;;;;2.90;2.43;;;;;23.60;101254.00;;;;4924801;29;20649;-71
2023/09/15 12:27:47;;;;;;;5.80;2.90;;;;;23.70;101254.00;;;;4915256;29;20370;-73
2023/09/15 12:30:35;;;;;;;5.57;2.87;;;;;23.90;101261.00;;;;4923125;29;20362;-71
2023/09/15 12:33:21;;;;;;;4.40;2.30;;;;;23.90;101253.00;;;;4910150;29;20262;-70
2023/09/15 12:36:12;;;;;;;5.13;2.53;;;;;23.90;101259.00;;;;4921525;28;20233;-71
2023/09/15 12:38:58;;;;;;;5.30;2.57;;;;;24.00;101252.00;;;;4923541;29;20257;-71
2023/09/15 12:41:46;;;;;;;3.60;2.30;;;;;24.00;101254.00;;;;4919448;29;20240;-73
2023/09/15 12:44:46;;;;;;;4.67;2.50;;;;;24.20;101258.00;;;;4914818;29;20236;-71
2023/09/15 12:47:33;;;;;;;6.40;2.70;;;;;24.30;101251.00;;;;4923149;29;20280;-74
2023/09/15 12:50:19;;;;;;;5.17;2.63;;;;;24.40;101252.00;;;;4919769;29;20726;-71
2023/09/15 12:53:05;;;;;;;4.75;2.75;;;;;24.40;101245.00;;;;4922861;29;20321;-70
2023/09/15 12:55:53;;;;;;;5.35;2.30;;;;;24.50;101250.00;;;;4924120;29;20264;-69
2023/09/15 12:58:40;;;;;;;3.67;2.67;;;;;24.60;101252.00;;;;4925111;29;20386;-72
2023/09/15 13:01:27;;;;;;;5.43;3.10;;;;;24.50;101247.00;;;;4920457;29;20228;-70
2023/09/15 13:04:14;;;;;;;4.70;2.90;;;;;24.40;101249.00;;;;4921793;29;20948;-72
2023/09/15 13:07:01;;;;;;;4.53;2.80;;;;;24.60;101242.00;;;;4923225;29;20252;-72
2023/09/15 13:09:47;;;;;;;3.92;2.63;;;;;24.70;101244.00;;;;4910695;29;20651;-75
2023/09/15 13:12:33;;;;;;;2.80;2.43;;;;;24.60;101235.00;;;;4921309;28;20288;-73
2023/09/15 13:15:21;;;;;;;5.40;3.67;;;;;24.80;101238.00;;;;4916306;28;20381;-70
2023/09/15 13:18:08;;;;;;;6.13;2.90;;;;;24.80;101228.00;;;;4915844;29;20252;-73
2023/09/15 13:20:55;;;;;;;7.53;3.78;;;;;25.00;101223.00;;;;4915658;29;20225;-71
2023/09/15 13:23:41;;;;;;;4.30;3.00;;;;;25.10;101221.00;;;;4914321;29;20241;-70
2023/09/15 13:26:29;;;;;;;5.95;3.30;;;;;25.10;101216.00;;;;4921805;29;20233;-71
2023/09/15 13:29:15;;;;;;;4.30;2.72;;;;;25.10;101215.00;;;;4921788;29;20236;-72
2023/09/15 13:32:04;;;;;;;5.82;2.97;;;;;25.10;101214.00;;;;4930901;29;20280;-69
2023/09/15 13:34:50;;;;;;;6.15;3.50;;;;;25.40;101210.00;;;;4923700;29;20295;-71
2023/09/15 13:37:37;;;;;;;5.00;3.25;;;;;25.40;101209.00;;;;4921837;29;20237;-75
2023/09/15 13:40:23;;;;;;;4.90;2.95;;;;;25.30;101200.00;;;;4925151;29;20283;-70
2023/09/15 13:43:10;;;;;;;4.47;3.03;;;;;25.30;101198.00;;;;4916261;29;20246;-72
2023/09/15 13:45:56;;;;;;;5.25;3.47;;;;;25.30;101203.00;;;;4920558;28;20765;-72